createdAt,value
2023-05-14T00:00:26.942Z,65.09
2023-05-14T00:02:32.307Z,65.15
2023-05-14T00:04:22.986Z,65.17
2023-05-14T00:06:13.323Z,65.26
2023-05-14T00:08:03.885Z,65.32
2023-05-14T00:09:53.647Z,65.48
2023-05-14T00:11:43.755Z,65.61
2023-05-14T00:13:35.020Z,65.64
2023-05-14T00:15:25.551Z,65.72
2023-05-14T00:17:15.648Z,65.65
2023-05-14T00:19:05.933Z,65.55
2023-05-14T00:20:55.993Z,65.61
2023-05-14T00:22:45.678Z,65.51
2023-05-14T00:24:36.385Z,65.53
2023-05-14T00:26:26.791Z,65.61
2023-05-14T00:28:16.956Z,65.88
2023-05-14T00:30:07.346Z,65.68
2023-05-14T00:31:57.628Z,65.58
2023-05-14T00:33:47.665Z,65.49
2023-05-14T00:35:37.773Z,65.48
2023-05-14T00:37:27.587Z,65.64
2023-05-14T00:39:17.316Z,65.62
2023-05-14T00:41:07.416Z,65.38
2023-05-14T00:42:57.203Z,65.31
2023-05-14T00:44:47.159Z,65.54
2023-05-14T00:46:37.756Z,65.63
2023-05-14T00:48:28.771Z,65.31
2023-05-14T00:50:19.423Z,65.59
2023-05-14T00:52:10.525Z,65.53
2023-05-14T00:54:00.933Z,65.36
2023-05-14T00:55:51.674Z,65.62
2023-05-14T00:57:42.113Z,65.34
2023-05-14T00:59:32.359Z,65.87
2023-05-14T01:01:22.755Z,65.90
2023-05-14T01:03:13.050Z,65.64
2023-05-14T01:05:03.316Z,65.43
2023-05-14T01:07:22.625Z,65.39
2023-05-14T01:09:23.871Z,64.78
2023-05-14T01:11:22.071Z,64.81
2023-05-14T01:13:20.411Z,64.62
2023-05-14T01:15:12.252Z,64.52
2023-05-14T01:17:03.852Z,64.30
2023-05-14T01:18:56.247Z,64.48
2023-05-14T01:20:50.319Z,64.41
2023-05-14T01:22:40.373Z,64.21
2023-05-14T01:24:30.877Z,63.92
2023-05-14T01:26:21.248Z,64.04
2023-05-14T01:28:19.816Z,64.07
2023-05-14T01:30:21.668Z,64.19
2023-05-14T01:32:12.781Z,63.89
2023-05-14T01:34:04.665Z,63.84
2023-05-14T01:35:55.496Z,63.96
2023-05-14T01:37:46.827Z,64.03
2023-05-14T01:39:37.610Z,63.97
2023-05-14T01:41:29.096Z,63.76
2023-05-14T01:43:19.428Z,63.98
2023-05-14T01:45:09.942Z,63.80
2023-05-14T01:47:00.153Z,63.73
2023-05-14T01:48:50.705Z,63.84
2023-05-14T01:50:41.301Z,63.96
2023-05-14T01:52:31.359Z,64.11
2023-05-14T01:54:21.846Z,64.08
2023-05-14T01:56:12.168Z,64.07
2023-05-14T01:58:02.760Z,63.96
2023-05-14T01:59:52.729Z,63.98
2023-05-14T02:01:43.102Z,63.83
2023-05-14T02:03:33.392Z,63.85
2023-05-14T02:05:23.716Z,63.93
2023-05-14T02:07:14.217Z,63.94
2023-05-14T02:09:04.528Z,63.88
2023-05-14T02:12:32.651Z,63.76
2023-05-14T02:14:24.179Z,63.76
2023-05-14T02:16:15.912Z,63.96
2023-05-14T02:18:07.374Z,63.97
2023-05-14T02:19:58.890Z,63.95
2023-05-14T02:21:50.705Z,64.09
2023-05-14T02:23:43.165Z,63.92
2023-05-14T02:25:34.935Z,64.02
2023-05-14T02:27:26.385Z,64.25
2023-05-14T02:29:18.157Z,64.15
2023-05-14T02:31:10.019Z,64.32
2023-05-14T02:33:01.878Z,64.17
2023-05-14T02:34:53.500Z,64.59
2023-05-14T02:36:45.153Z,64.43
2023-05-14T02:38:36.931Z,64.36
2023-05-14T02:40:29.124Z,64.46
2023-05-14T02:42:20.960Z,64.47
2023-05-14T02:44:12.739Z,64.39
2023-05-14T02:46:04.652Z,64.78
2023-05-14T02:47:56.266Z,64.83
2023-05-14T02:49:47.706Z,64.89
2023-05-14T02:51:40.075Z,64.89
2023-05-14T02:53:31.579Z,64.99
2023-05-14T02:55:26.442Z,65.12
2023-05-14T02:57:18.330Z,65.25
2023-05-14T02:59:10.425Z,65.31
2023-05-14T03:01:03.132Z,65.38
2023-05-14T03:02:55.739Z,65.05
2023-05-14T03:04:48.383Z,65.13
2023-05-14T03:06:40.460Z,65.52
2023-05-14T03:08:32.103Z,65.31
2023-05-14T03:10:24.419Z,65.43
2023-05-14T03:12:16.262Z,65.86
2023-05-14T03:14:07.943Z,66.03
2023-05-14T03:15:59.373Z,66.01
2023-05-14T03:17:50.967Z,66.26
2023-05-14T03:19:42.820Z,66.06
2023-05-14T03:21:34.516Z,65.75
2023-05-14T03:23:26.238Z,65.71
2023-05-14T03:25:18.382Z,65.53
2023-05-14T03:27:09.866Z,66.15
2023-05-14T03:29:02.552Z,66.30
2023-05-14T03:30:54.732Z,66.50
2023-05-14T03:32:47.013Z,66.79
2023-05-14T03:34:38.873Z,66.82
2023-05-14T03:36:30.543Z,67.01
2023-05-14T03:38:22.216Z,67.17
2023-05-14T03:40:13.901Z,67.13
2023-05-14T03:42:05.881Z,67.15
2023-05-14T03:43:57.804Z,67.21
2023-05-14T03:45:52.748Z,67.40
2023-05-14T03:47:44.214Z,66.97
2023-05-14T03:49:36.676Z,67.53
2023-05-14T03:51:28.373Z,67.38
2023-05-14T03:53:20.193Z,67.34
2023-05-14T03:55:12.361Z,68.16
2023-05-14T03:57:04.485Z,68.23
2023-05-14T03:58:56.248Z,67.78
2023-05-14T04:00:48.841Z,67.91
2023-05-14T04:02:40.615Z,67.91
2023-05-14T04:04:32.697Z,67.89
2023-05-14T04:06:24.178Z,68.02
2023-05-14T04:08:16.268Z,67.93
2023-05-14T04:10:08.958Z,67.51
2023-05-14T04:12:01.098Z,67.72
2023-05-14T04:13:52.821Z,67.52
2023-05-14T04:15:44.222Z,67.06
2023-05-14T04:17:36.101Z,67.19
2023-05-14T04:19:27.551Z,67.35
2023-05-14T04:21:19.293Z,66.13
2023-05-14T04:23:10.981Z,65.48
2023-05-14T04:25:03.207Z,65.63
2023-05-14T04:26:55.076Z,65.32
2023-05-14T04:28:47.075Z,65.06
2023-05-14T04:30:39.366Z,64.38
2023-05-14T04:32:30.813Z,63.82
2023-05-14T04:34:23.017Z,63.30
2023-05-14T04:36:15.154Z,62.99
2023-05-14T04:38:06.986Z,62.35
2023-05-14T04:39:58.853Z,61.59
2023-05-14T04:41:50.345Z,61.24
2023-05-14T04:43:41.944Z,60.73
2023-05-14T04:45:34.262Z,60.06
2023-05-14T04:47:26.826Z,59.93
2023-05-14T04:49:18.448Z,59.98
2023-05-14T04:51:10.401Z,59.71
2023-05-14T04:53:02.009Z,59.77
2023-05-14T04:54:53.499Z,59.00
2023-05-14T04:56:45.760Z,57.94
2023-05-14T04:58:37.850Z,57.63
2023-05-14T05:00:30.684Z,57.40
2023-05-14T05:02:22.647Z,57.21
2023-05-14T05:04:14.586Z,56.90
2023-05-14T05:06:06.781Z,57.53
2023-05-14T05:07:58.709Z,57.24
2023-05-14T05:09:50.256Z,57.89
2023-05-14T05:11:42.223Z,57.33
2023-05-14T05:13:33.763Z,56.56
2023-05-14T05:15:26.561Z,56.68
2023-05-14T05:17:18.696Z,56.39
2023-05-14T05:19:10.484Z,55.24
2023-05-14T05:21:02.569Z,54.84
2023-05-14T05:22:54.440Z,54.43
2023-05-14T05:24:47.479Z,54.26
2023-05-14T05:26:40.354Z,53.10
2023-05-14T05:28:32.467Z,53.62
2023-05-14T05:30:24.836Z,52.38
2023-05-14T05:32:16.768Z,51.90
2023-05-14T05:34:08.883Z,51.43
2023-05-14T05:36:00.815Z,51.43
2023-05-14T05:37:52.535Z,51.39
2023-05-14T05:39:44.037Z,52.02
2023-05-14T05:41:35.972Z,51.67
2023-05-14T05:43:28.663Z,51.01
2023-05-14T05:45:20.631Z,51.27
2023-05-14T05:47:12.666Z,50.66
2023-05-14T05:49:04.401Z,49.45
2023-05-14T05:50:55.872Z,50.20
2023-05-14T05:52:48.103Z,48.96
2023-05-14T05:54:40.086Z,48.75
2023-05-14T05:56:32.107Z,48.06
2023-05-14T05:58:23.648Z,47.95
2023-05-14T06:00:17.071Z,48.80
2023-05-14T06:02:09.232Z,47.80
2023-05-14T06:04:01.207Z,47.57
2023-05-14T06:05:53.182Z,46.94
2023-05-14T06:07:45.032Z,47.27
2023-05-14T06:09:36.529Z,47.01
2023-05-14T06:11:28.680Z,47.63
2023-05-14T06:13:20.106Z,47.49
2023-05-14T06:15:12.649Z,46.73
2023-05-14T06:17:04.622Z,47.13
2023-05-14T06:18:56.731Z,47.62
2023-05-14T06:20:48.225Z,47.62
2023-05-14T06:22:40.034Z,46.86
2023-05-14T06:24:31.679Z,47.13
2023-05-14T06:26:23.549Z,47.54
2023-05-14T06:28:15.614Z,47.45
2023-05-14T06:30:08.530Z,46.79
2023-05-14T06:32:04.257Z,47.51
2023-05-14T06:33:55.772Z,47.59
2023-05-14T06:35:47.756Z,46.98
2023-05-14T06:37:39.647Z,47.60
2023-05-14T06:39:31.732Z,47.51
2023-05-14T06:41:23.288Z,47.30
2023-05-14T06:43:14.843Z,47.33
2023-05-14T06:45:07.115Z,47.90
2023-05-14T06:46:59.118Z,47.31
2023-05-14T06:48:50.861Z,47.15
2023-05-14T06:50:42.369Z,46.75
2023-05-14T06:52:34.344Z,46.83
2023-05-14T06:54:26.218Z,46.63
2023-05-14T06:56:18.277Z,47.21
2023-05-14T06:58:09.994Z,45.64
2023-05-14T07:00:03.440Z,44.24
2023-05-14T07:01:55.701Z,44.67
2023-05-14T07:03:47.292Z,43.40
2023-05-14T07:05:40.900Z,43.02
2023-05-14T07:07:32.788Z,43.23
2023-05-14T07:09:24.724Z,41.64
2023-05-14T07:11:16.479Z,41.81
2023-05-14T07:13:08.578Z,40.41
2023-05-14T07:15:00.140Z,38.52
2023-05-14T07:16:51.998Z,39.27
2023-05-14T07:18:45.724Z,37.36
2023-05-14T07:20:38.026Z,39.01
2023-05-14T07:22:29.414Z,38.66
2023-05-14T07:24:21.272Z,38.02
2023-05-14T07:26:13.306Z,36.44
2023-05-14T07:28:05.120Z,36.91
2023-05-14T07:29:57.009Z,36.32
2023-05-14T07:31:48.687Z,35.43
2023-05-14T07:33:40.477Z,35.87
2023-05-14T07:35:32.380Z,35.39
2023-05-14T07:37:26.326Z,35.71
2023-05-14T07:39:18.149Z,37.38
2023-05-14T07:41:11.883Z,36.59
2023-05-14T07:43:03.314Z,35.67
2023-05-14T07:44:54.622Z,34.41
2023-05-14T07:46:46.285Z,33.88
2023-05-14T07:48:38.176Z,33.35
2023-05-14T07:50:30.323Z,34.23
2023-05-14T07:52:22.996Z,34.59
2023-05-14T07:54:14.565Z,34.65
2023-05-14T07:56:06.277Z,35.11
2023-05-14T07:57:57.640Z,33.37
2023-05-14T07:59:49.129Z,33.75
2023-05-14T08:01:42.206Z,33.05
2023-05-14T08:03:34.329Z,32.52
2023-05-14T08:05:26.700Z,33.47
2023-05-14T08:07:17.978Z,32.12
2023-05-14T08:09:09.859Z,31.98
2023-05-14T08:11:01.226Z,32.23
2023-05-14T08:22:45.793Z,32.57
2023-05-14T08:24:37.524Z,31.81
2023-05-14T08:26:28.851Z,31.02
2023-05-14T08:28:21.022Z,31.46
2023-05-14T08:30:13.113Z,30.93
2023-05-14T08:32:15.610Z,30.35
2023-05-14T08:34:13.986Z,29.61
2023-05-14T08:36:07.212Z,29.68
2023-05-14T08:37:58.845Z,29.42
2023-05-14T08:39:50.670Z,28.87
2023-05-14T08:41:43.585Z,29.09
2023-05-14T08:43:50.287Z,29.18
2023-05-14T08:45:42.523Z,28.28
2023-05-14T08:47:34.349Z,28.83
2023-05-14T08:49:41.569Z,28.39
2023-05-14T08:51:33.607Z,27.99
2023-05-14T08:53:24.974Z,29.10
2023-05-14T08:55:16.641Z,27.19
2023-05-14T08:57:11.355Z,28.51
2023-05-14T08:59:02.965Z,27.41
2023-05-14T09:00:54.845Z,26.78
2023-05-14T09:04:46.362Z,26.78
2023-05-14T09:06:38.240Z,26.53
2023-05-14T09:08:29.885Z,25.82
2023-05-14T09:10:22.751Z,26.16
2023-05-14T09:12:14.576Z,25.87
2023-05-14T09:14:06.252Z,26.14
2023-05-14T09:15:58.904Z,26.51
2023-05-14T09:17:50.433Z,27.38
2023-05-14T09:19:43.549Z,26.86
2023-05-14T09:21:35.545Z,26.87
2023-05-14T09:23:27.296Z,26.20
2023-05-14T09:25:19.241Z,26.36
2023-05-14T09:27:18.412Z,26.39
2023-05-14T09:29:09.933Z,25.67
2023-05-14T09:31:02.755Z,24.46
2023-05-14T09:32:55.111Z,23.89
2023-05-14T09:34:46.735Z,25.49
2023-05-14T09:36:38.353Z,23.67
2023-05-14T09:38:33.806Z,25.39
2023-05-14T09:40:25.565Z,23.79
2023-05-14T09:42:17.103Z,24.64
2023-05-14T09:44:08.650Z,23.69
2023-05-14T09:46:00.189Z,24.83
2023-05-14T09:47:53.194Z,24.23
2023-05-14T09:49:48.844Z,24.73
2023-05-14T09:51:40.605Z,23.11
2023-05-14T09:53:33.554Z,23.32
2023-05-14T09:55:26.356Z,23.96
2023-05-14T09:57:17.728Z,24.10
2023-05-14T09:59:09.329Z,25.21
2023-05-14T10:01:01.971Z,24.78
2023-05-14T10:02:54.168Z,24.99
2023-05-14T10:04:46.882Z,25.28
2023-05-14T10:06:39.762Z,24.92
2023-05-14T10:08:35.290Z,25.14
2023-05-14T10:10:29.894Z,24.71
2023-05-14T10:12:22.727Z,23.95
2023-05-14T10:14:19.686Z,24.36
2023-05-14T10:16:20.362Z,23.77
2023-05-14T10:18:14.880Z,23.03
2023-05-14T10:20:09.399Z,23.16
2023-05-14T10:22:05.597Z,23.03
2023-05-14T10:23:58.021Z,23.88
2023-05-14T10:25:49.948Z,24.37
2023-05-14T10:27:41.590Z,24.24
2023-05-14T10:29:37.711Z,24.16
2023-05-14T11:11:26.382Z,23.47
2023-05-14T11:13:19.197Z,23.68
2023-05-14T11:15:12.662Z,22.85
2023-05-14T11:17:04.803Z,23.94
2023-05-14T19:09:56.993Z,53.45
2023-05-14T19:11:48.432Z,53.75
2023-05-14T19:13:40.154Z,53.75
2023-05-14T19:15:32.458Z,53.90
2023-05-14T19:17:24.913Z,53.76
2023-05-14T19:19:16.688Z,54.17
2023-05-14T19:21:08.504Z,53.95
2023-05-14T19:23:00.252Z,54.24
2023-05-14T19:24:51.730Z,54.88
2023-05-14T19:26:43.677Z,54.46
2023-05-14T19:28:37.966Z,54.71
2023-05-14T19:30:29.476Z,55.04
2023-05-14T19:32:21.135Z,55.28
2023-05-14T19:34:13.001Z,55.75
2023-05-14T19:36:05.169Z,56.58
2023-05-14T19:37:56.915Z,57.64
2023-05-14T19:39:48.590Z,57.96
2023-05-14T19:41:40.718Z,58.08
2023-05-14T19:43:32.267Z,57.56
2023-05-14T19:45:24.276Z,57.40
2023-05-14T19:47:16.105Z,57.58
2023-05-14T19:49:07.918Z,58.09
2023-05-14T19:50:59.776Z,58.21
2023-05-14T19:52:51.847Z,58.46
2023-05-14T19:54:43.362Z,58.27
2023-05-14T19:56:35.528Z,58.06
2023-05-14T19:58:27.253Z,58.73
2023-05-14T20:00:18.696Z,59.51
2023-05-14T20:02:12.952Z,59.96
2023-05-14T20:04:04.878Z,60.15
2023-05-14T20:05:56.305Z,61.28
2023-05-14T20:07:48.999Z,60.72
2023-05-14T20:09:40.700Z,59.48
2023-05-14T20:11:32.645Z,59.42
2023-05-14T20:13:25.292Z,61.14
2023-05-14T20:15:17.037Z,61.01
2023-05-14T20:17:08.879Z,60.67
2023-05-14T20:19:00.549Z,61.00
2023-05-14T20:20:52.430Z,60.99
2023-05-14T20:22:44.113Z,61.65
2023-05-14T20:24:35.646Z,61.45
2023-05-14T20:26:27.125Z,60.88
2023-05-14T20:28:18.774Z,60.99
2023-05-14T20:30:10.442Z,62.02
2023-05-14T20:32:01.969Z,61.94
2023-05-14T20:33:53.480Z,61.66
2023-05-14T20:35:45.695Z,61.80
2023-05-14T20:37:38.052Z,61.90
2023-05-14T20:39:29.588Z,61.84
2023-05-14T20:41:22.389Z,61.94
2023-05-14T20:43:14.565Z,63.00
2023-05-14T20:45:07.080Z,63.11
2023-05-14T20:46:58.510Z,63.23
2023-05-14T20:48:51.899Z,63.71
2023-05-14T20:50:44.762Z,63.79
2023-05-14T20:52:36.489Z,64.48
2023-05-14T20:54:28.164Z,64.62
2023-05-14T20:56:19.766Z,65.09
2023-05-14T20:58:11.189Z,65.56
2023-05-14T21:00:08.106Z,65.63
2023-05-14T21:01:59.697Z,64.65
2023-05-14T21:03:51.730Z,63.91
2023-05-14T21:05:43.882Z,64.17
2023-05-14T21:07:37.627Z,64.51
2023-05-14T21:09:32.722Z,64.92
2023-05-14T21:11:24.173Z,65.48
2023-05-14T21:13:15.744Z,65.56
2023-05-14T21:15:08.184Z,64.62
2023-05-14T21:16:59.962Z,64.95
2023-05-14T21:18:51.537Z,65.35
2023-05-14T21:20:43.238Z,66.13
2023-05-14T21:22:34.861Z,66.37
2023-05-14T21:24:26.923Z,66.35
2023-05-14T21:26:18.428Z,66.78
2023-05-14T21:28:10.470Z,67.10
2023-05-14T21:30:01.945Z,66.93
2023-05-14T21:31:53.867Z,67.22
2023-05-14T21:33:45.147Z,67.36
2023-05-14T21:35:37.043Z,67.36
2023-05-14T21:37:28.980Z,67.95
2023-05-14T21:39:20.597Z,67.99
2023-05-14T21:41:12.023Z,68.42
2023-05-14T21:43:03.861Z,68.55
2023-05-14T21:44:56.034Z,69.12
2023-05-14T21:46:47.915Z,70.61
2023-05-14T21:48:39.737Z,70.75
2023-05-14T21:50:31.281Z,71.01
2023-05-14T21:52:23.046Z,71.06
2023-05-14T21:54:14.822Z,71.74
2023-05-14T21:56:07.122Z,72.21
2023-05-14T21:57:58.814Z,72.55
2023-05-14T21:59:50.341Z,72.61
2023-05-14T22:02:00.712Z,72.61
2023-05-14T22:03:55.159Z,72.47
2023-05-14T22:05:49.287Z,72.57
2023-05-14T22:07:40.921Z,72.94
2023-05-14T22:09:32.849Z,72.97
2023-05-14T22:11:24.190Z,72.87
2023-05-14T22:13:15.843Z,72.85
2023-05-14T22:15:08.637Z,72.66
2023-05-14T22:17:00.229Z,72.83
2023-05-14T22:18:52.551Z,72.65
2023-05-14T22:20:44.306Z,72.43
2023-05-14T22:22:36.573Z,72.41
2023-05-14T22:24:28.156Z,72.73
2023-05-14T22:26:21.615Z,73.38
2023-05-14T22:28:13.141Z,73.28
2023-05-14T22:30:05.987Z,73.41
2023-05-14T22:31:58.021Z,73.31
2023-05-14T22:33:49.709Z,73.67
2023-05-14T22:35:41.468Z,73.79
2023-05-14T22:37:32.838Z,74.03
2023-05-14T22:39:24.185Z,74.13
2023-05-14T22:41:17.579Z,74.31
2023-05-14T22:43:09.221Z,74.49
2023-05-14T22:45:00.518Z,74.41
2023-05-14T22:46:51.974Z,74.75
2023-05-14T22:48:43.276Z,74.81
2023-05-14T22:50:34.653Z,74.86
2023-05-14T22:52:26.550Z,74.99
2023-05-14T22:54:18.499Z,74.85
2023-05-14T22:56:10.029Z,75.07
2023-05-14T22:58:01.624Z,74.92
2023-05-14T22:59:53.524Z,74.71
2023-05-14T23:01:45.290Z,74.86
2023-05-14T23:03:36.920Z,74.98
2023-05-14T23:05:28.817Z,74.63
2023-05-14T23:07:20.414Z,74.60
2023-05-14T23:09:12.334Z,74.73
2023-05-14T23:11:04.022Z,74.79
2023-05-14T23:12:55.839Z,74.72
2023-05-14T23:14:47.204Z,74.80
2023-05-14T23:16:39.579Z,74.96
2023-05-14T23:18:31.269Z,75.14
2023-05-14T23:20:22.992Z,75.07
2023-05-14T23:22:14.255Z,75.00
2023-05-14T23:24:06.446Z,75.05
2023-05-14T23:25:58.171Z,74.98
2023-05-14T23:27:50.241Z,75.18
2023-05-14T23:29:42.052Z,74.93
2023-05-14T23:31:33.643Z,75.11
2023-05-14T23:33:25.310Z,75.11
2023-05-14T23:35:17.130Z,75.26
2023-05-14T23:37:10.125Z,75.26
2023-05-14T23:39:02.028Z,75.40
2023-05-14T23:40:53.618Z,75.26
2023-05-14T23:42:45.566Z,75.13
2023-05-14T23:44:37.219Z,75.39
2023-05-14T23:46:28.921Z,75.39
2023-05-14T23:48:20.503Z,75.42
2023-05-14T23:50:12.325Z,75.59
2023-05-14T23:52:03.575Z,75.85
2023-05-14T23:53:58.449Z,75.79
2023-05-14T23:55:50.114Z,75.67
2023-05-14T23:57:41.428Z,75.94
2023-05-14T23:59:33.195Z,76.07
